AirNav   Advertisement
 
 1620 users online  

OL07 Carnegie Municipal Hospital Heliport
Carnegie, Oklahoma, USA


FAA INFORMATION EFFECTIVE 14 SEPTEMBER 2017

Location

FAA Identifier: OL07
Lat/Long: 35-06-28.5200N / 098-36-18.4000W
35-06.475333N / 098-36.306667W
35.1079222 / -98.6051111
(estimated)
Elevation: 1234 ft. / 376 m (estimated)
Variation: 08E (1985)
Time zone: UTC -5 (UTC -6 during Standard Time)
Zip code: 73015

Heliport Operations

Heliport use: Private use, MEDICAL
Activation date: 07/1987
Control tower: no
ARTCC: FORT WORTH CENTER
FSS: MC ALESTER FLIGHT SERVICE STATION
Attendance: UNATNDD
Segmented circle: no
Lights: SS-SR

Nearby radio navigation aids

VOR radial/distance  VOR name  Freq  Var
HBRr047/26.8HOBART VORTAC111.8010E
BFVr100/30.5BURNS FLAT VORTAC110.0005E
LAWr337/37.9LAWTON VOR/DME109.4009E

 
NDB name  Hdg/Dist  Freq  Var  ID
TRAIL324/22.038809EOFZ --- ..-. --..
POST334/31.542508EPFL .--. ..-. .-..

Heliport Services

Runway Information

Helipad H1

Dimensions: 75 x 75 ft. / 23 x 23 m
Surface: asphalt
Runway edge lights: PERIMETER LGTS.
Latitude: 35-06.475333N
Longitude: 098-36.306667W
Elevation: 1234.0 ft.
Traffic pattern: leftleft

Heliport Ownership and Management from official FAA records

Ownership: Publicly-owned
Owner: CARNEGIE MUNICIPAL HOSPITAL
102 NORTH BROADWAY
CARNEGIE, OK 73015
Phone 580-654-1050
Manager: DORIS BROWN,ADMIN
PO BOX 97
CARNEGIE, OK 73015
Phone 580-654-1050

Instrument Procedures

There are no published instrument procedures at OL07.

Some nearby airports with instrument procedures:

KHBR - Hobart Regional Airport (23 nm W)
KOJA - Thomas P Stafford Airport (26 nm N)
2O8 - Hinton Municipal Airport (27 nm NE)
KFSI - Henry Post Army Airfield (Fort Sill) (29 nm S)
KCLK - Clinton Regional Airport (30 nm NW)
 
Loc | Ops | Rwys | IFR | FBO | Links
Com | Nav | Svcs | Stats | Notes


 
Area around OL07 (Carnegie Municipal Hospital Heliport)
 
Road maps at: MapQuest Bing Google
 
Aerial photo
No photo
 
Sectional chart

 
Airport distance calculator
Flying to Carnegie Municipal Hospital Heliport? Find the distance to fly.

From to OL07

Sunrise and sunset
Times for 20-Sep-2017
 Local
(UTC-5)
 Zulu
(UTC)
Morning civil twilight06:5711:57
Sunrise07:2212:22
Sunset19:3400:34
Evening civil twilight19:5900:59

Current date and time
Zulu (UTC)  20-Sep-2017 17:51:26
Local (UTC-5)  20-Sep-2017 12:51:26
 
METAR
KHBR 
23nm W 
201653Z AUTO 22013KT 8SM CLR 29/20 A2984 RMK AO2 SLP085 T02890200
KOJA 
26nm N 
201735Z AUTO 21011KT 7SM CLR 30/20 A2984 RMK AO2
KCLK 
30nm NW 
201735Z AUTO 18006KT 10SM CLR 28/17 A2984 RMK AO2
KFSI 
30nm S 
201658Z AUTO 19013G19KT 10SM FEW026 30/24 A2982 RMK AO2 SLP088 T02980241 $
KCHK 
31nm E 
201735Z AUTO 19017G22KT 10SM CLR 30/22 A2980 RMK AO2 T03050220
KCSM 
33nm NW 
201653Z 23010KT 10SM CLR 28/18 A2986 RMK AO2 SLP085 T02780183
KLAW 
35nm S 
201653Z 19013KT 10SM FEW027 30/23 A2984 RMK AO2 SLP090 T03000228
KRQO 
37nm NE 
201735Z AUTO 20014G22KT 10SM SCT030 30/22 A2985 RMK AO2 T03010221
KLTS 
42nm SW 
201658Z AUTO 19008G15KT 10SM CLR 30/18 A2982 RMK AO2 SLP082 T03030184 CHINO RWY35R $
KELK 
43nm NW 
201735Z AUTO 00000KT 10SM CLR 27/18 A2985 RMK AO2 T02730180
TAF
KHBR 
23nm W 
201120Z 2012/2112 18014KT P6SM SCT250 FM201500 21014G21KT P6SM SCT060 FM210000 17010KT P6SM SKC
NOTAMs
Click for the latest NOTAMs
NOTAMs are issued by the DoD/FAA and will open in a separate window not controlled by AirNav.

 

 
 

Would you like to see your business listed on this page?

 If your business provides an interesting product or service to pilots, flight crews, aircraft, or users of the Carnegie Municipal Hospital Heliport, you should consider listing it here.  To start the listing process, click on the button below
 
Add a business
 

Other Pages about Carnegie Municipal Hospital Heliport

Update a link
 
Copyright © AirNav, LLC. All rights reserved. Privacy Policy  Contact